Time;durP1;ratioP1;P1;durP2;ratioP2;P2;SDS_P1;SDS_P2;PMS_P1;PMS_P2;Temp;Humidity;BMP_temperature;BMP_pressure;BME280_temperature;BME280_humidity;BME280_pressure;Samples;Min_cycle;Max_cycle;Signal;HPM_P1;HPM_P2
2024/04/04 00:01:31;;;;;;;3.83;0.93;;;11.80;86.20;;;;;;5036464;28;20061;-66
2024/04/04 00:03:56;;;;;;;3.05;1.05;;;11.80;86.30;;;;;;5039093;28;20626;-65
2024/04/04 00:06:23;;;;;;;2.88;0.90;;;11.80;86.30;;;;;;5023905;28;20105;-65
2024/04/04 00:08:49;;;;;;;3.28;0.80;;;11.80;86.40;;;;;;5032826;28;20022;-64
2024/04/04 00:11:14;;;;;;;2.08;0.82;;;11.70;86.40;;;;;;5034822;28;20112;-66
2024/04/04 00:13:40;;;;;;;0.98;0.60;;;11.70;86.50;;;;;;5036471;28;20033;-66
2024/04/04 00:16:06;;;;;;;4.15;1.50;;;11.70;86.70;;;;;;5042017;28;20021;-65
2024/04/04 00:18:32;;;;;;;2.42;1.00;;;11.60;86.60;;;;;;5033506;28;20048;-65
2024/04/04 00:20:58;;;;;;;2.42;0.90;;;11.50;86.60;;;;;;5040140;28;20048;-66
2024/04/04 00:23:23;;;;;;;2.03;1.08;;;11.50;86.70;;;;;;5033622;28;20026;-66
2024/04/04 00:25:49;;;;;;;1.65;1.20;;;11.50;86.70;;;;;;5033751;28;20078;-66
2024/04/04 00:28:15;;;;;;;3.78;1.20;;;11.40;87.30;;;;;;5035246;28;20086;-67
2024/04/04 00:30:40;;;;;;;1.98;0.95;;;11.30;86.80;;;;;;5035586;28;20024;-67
2024/04/04 00:33:06;;;;;;;4.25;0.90;;;11.30;86.90;;;;;;5032990;28;20026;-66
2024/04/04 00:35:31;;;;;;;3.35;1.10;;;11.20;86.80;;;;;;5028438;28;20033;-66
2024/04/04 00:37:57;;;;;;;2.47;1.00;;;11.20;86.70;;;;;;5037095;28;20727;-66
2024/04/04 00:40:23;;;;;;;2.63;1.08;;;11.10;86.60;;;;;;5033460;28;20021;-68
2024/04/04 00:42:50;;;;;;;3.63;1.08;;;11.10;86.70;;;;;;5029826;28;20035;-67
2024/04/04 00:45:15;;;;;;;4.28;1.10;;;11.10;86.80;;;;;;5035501;28;20041;-67
2024/04/04 00:47:46;;;;;;;3.17;1.13;;;11.00;86.70;;;;;;5029952;28;20033;-66
2024/04/04 00:50:14;;;;;;;4.15;1.02;;;11.00;86.80;;;;;;5026606;28;20021;-67
2024/04/04 00:52:39;;;;;;;2.35;0.82;;;10.90;86.80;;;;;;5030501;28;20033;-67
2024/04/04 00:55:06;;;;;;;3.58;0.70;;;10.90;86.90;;;;;;5031539;28;20021;-67
2024/04/04 00:57:32;;;;;;;1.00;0.60;;;10.90;87.00;;;;;;5038388;28;20113;-66
2024/04/04 00:59:58;;;;;;;4.78;1.00;;;10.90;86.90;;;;;;5031113;28;20561;-66
2024/04/04 01:02:24;;;;;;;2.83;0.90;;;10.90;87.00;;;;;;5034764;28;20029;-66
2024/04/04 01:04:49;;;;;;;4.28;0.88;;;10.80;87.00;;;;;;5031350;28;20013;-66
2024/04/04 01:07:16;;;;;;;1.23;0.80;;;10.80;87.00;;;;;;5034707;28;20029;-66
2024/04/04 01:09:42;;;;;;;2.97;0.65;;;10.80;87.10;;;;;;5029862;28;20080;-65
2024/04/04 01:12:08;;;;;;;4.55;1.23;;;10.80;87.20;;;;;;5033834;28;20056;-66
2024/04/04 01:14:34;;;;;;;3.17;1.20;;;10.80;87.20;;;;;;5039753;28;20091;-67
2024/04/04 01:17:00;;;;;;;3.58;1.13;;;10.80;87.20;;;;;;5036822;28;20025;-66
2024/04/04 01:19:26;;;;;;;7.05;1.30;;;10.70;87.20;;;;;;5033916;28;20492;-66
2024/04/04 01:21:52;;;;;;;4.20;1.05;;;10.70;87.20;;;;;;5037518;28;20025;-64
2024/04/04 01:24:17;;;;;;;2.65;0.77;;;10.70;87.30;;;;;;5033252;28;20495;-66
2024/04/04 01:26:43;;;;;;;4.72;1.10;;;10.70;87.30;;;;;;5029683;28;20029;-66
2024/04/04 01:29:08;;;;;;;4.10;1.10;;;10.70;87.30;;;;;;5030239;28;20029;-66
2024/04/04 01:31:34;;;;;;;5.30;1.23;;;10.80;87.40;;;;;;5036855;28;20033;-67
2024/04/04 01:33:59;;;;;;;3.83;1.25;;;10.70;87.50;;;;;;5030189;28;20025;-66
2024/04/04 01:36:25;;;;;;;2.45;0.90;;;10.80;87.50;;;;;;5030855;28;20037;-67
2024/04/04 01:38:50;;;;;;;4.65;1.25;;;10.80;87.50;;;;;;5035360;28;20039;-66
2024/04/04 01:41:16;;;;;;;5.18;1.30;;;10.80;87.80;;;;;;5035511;28;20029;-66
2024/04/04 01:43:42;;;;;;;3.35;1.05;;;10.80;88.40;;;;;;5036390;28;20029;-67
2024/04/04 01:46:09;;;;;;;3.63;1.00;;;10.80;88.80;;;;;;5026935;28;20045;-66
2024/04/04 01:48:35;;;;;;;2.25;0.90;;;10.70;89.10;;;;;;5030759;28;20420;-67
2024/04/04 01:51:00;;;;;;;1.15;0.90;;;10.70;89.50;;;;;;5026251;28;20028;-67
2024/04/04 01:53:26;;;;;;;4.07;1.00;;;10.70;89.80;;;;;;5034052;28;20021;-66
2024/04/04 01:55:58;;;;;;;2.88;0.80;;;10.70;89.90;;;;;;5034449;28;20484;-68
2024/04/04 01:58:23;;;;;;;1.50;0.93;;;10.80;90.00;;;;;;5026743;28;20106;-67
2024/04/04 02:00:49;;;;;;;5.07;1.30;;;10.70;90.00;;;;;;5036978;28;20535;-66
2024/04/04 02:03:15;;;;;;;2.72;0.93;;;10.70;90.10;;;;;;5028612;28;20048;-67
2024/04/04 02:05:41;;;;;;;2.40;1.00;;;10.80;90.20;;;;;;5029356;28;20056;-67
2024/04/04 02:08:07;;;;;;;2.85;0.70;;;10.80;90.20;;;;;;5030956;28;20029;-67
2024/04/04 02:10:33;;;;;;;2.05;0.80;;;10.80;90.20;;;;;;5026014;28;20033;-67
2024/04/04 02:12:59;;;;;;;3.45;0.85;;;10.80;90.30;;;;;;5037014;28;20095;-67
2024/04/04 02:15:25;;;;;;;1.77;0.80;;;10.80;90.50;;;;;;5038146;28;20049;-67
2024/04/04 02:17:50;;;;;;;4.45;1.27;;;10.80;90.40;;;;;;5031610;28;21397;-66
2024/04/04 02:20:16;;;;;;;2.65;0.70;;;10.90;90.50;;;;;;5034951;28;20029;-66
2024/04/04 02:22:42;;;;;;;2.72;0.80;;;10.90;90.40;;;;;;5039833;28;20083;-67
2024/04/04 02:25:09;;;;;;;1.77;0.80;;;10.90;90.40;;;;;;5035669;28;20028;-66
2024/04/04 02:27:35;;;;;;;2.28;0.60;;;10.90;90.50;;;;;;5036919;28;20021;-67
2024/04/04 02:30:01;;;;;;;2.75;0.70;;;11.00;90.50;;;;;;5043454;28;20071;-67
2024/04/04 02:32:28;;;;;;;1.67;0.65;;;11.00;90.50;;;;;;5037337;28;20026;-67
2024/04/04 02:34:53;;;;;;;2.13;0.85;;;11.00;90.50;;;;;;5036191;28;20067;-66
2024/04/04 02:37:19;;;;;;;1.38;0.60;;;11.10;90.50;;;;;;5045970;28;20029;-67
2024/04/04 02:39:45;;;;;;;1.67;0.80;;;11.10;90.50;;;;;;5037030;28;20018;-65
2024/04/04 02:42:10;;;;;;;1.05;0.60;;;11.10;90.70;;;;;;5041493;28;20086;-66
2024/04/04 02:44:36;;;;;;;3.25;0.52;;;11.10;90.50;;;;;;5040099;28;20033;-66
2024/04/04 02:47:03;;;;;;;1.60;0.77;;;11.20;90.50;;;;;;5039462;28;20411;-67
2024/04/04 02:49:28;;;;;;;1.10;0.80;;;11.20;90.50;;;;;;5042343;28;20108;-66
2024/04/04 02:51:54;;;;;;;0.98;0.45;;;11.20;90.60;;;;;;5043395;28;20057;-67
2024/04/04 02:54:19;;;;;;;0.60;0.57;;;11.30;90.60;;;;;;5041131;28;20025;-67
2024/04/04 02:56:48;;;;;;;1.70;0.50;;;11.30;90.50;;;;;;5038978;28;20036;-66
2024/04/04 02:59:13;;;;;;;1.88;0.50;;;11.30;90.50;;;;;;5040674;28;20021;-67
2024/04/04 03:01:39;;;;;;;1.35;0.50;;;11.30;90.50;;;;;;5034396;28;20551;-67
2024/04/04 03:04:06;;;;;;;1.60;0.57;;;11.30;90.50;;;;;;5035025;28;20025;-67
2024/04/04 03:06:31;;;;;;;0.63;0.50;;;11.30;90.60;;;;;;5034474;28;20029;-66
2024/04/04 03:08:57;;;;;;;3.10;0.60;;;11.20;91.00;;;;;;5034356;28;20033;-66
2024/04/04 03:11:23;;;;;;;0.57;0.50;;;11.20;90.80;;;;;;5029086;28;20491;-66
2024/04/04 03:13:48;;;;;;;1.20;0.55;;;11.10;90.80;;;;;;5034333;28;20040;-66
2024/04/04 03:16:14;;;;;;;0.77;0.50;;;11.10;90.90;;;;;;5039733;28;20029;-67
2024/04/04 03:18:39;;;;;;;2.05;0.70;;;11.10;91.00;;;;;;5030761;28;20036;-67
2024/04/04 03:21:05;;;;;;;0.52;0.50;;;11.00;91.00;;;;;;5030812;28;21639;-66
2024/04/04 03:23:31;;;;;;;1.13;0.52;;;11.10;91.10;;;;;;5033297;28;20487;-67
2024/04/04 03:25:56;;;;;;;1.98;0.60;;;11.00;91.10;;;;;;5031604;28;20036;-66
2024/04/04 03:28:22;;;;;;;2.28;0.70;;;11.00;91.10;;;;;;5031134;28;20095;-66
2024/04/04 03:30:48;;;;;;;2.60;0.70;;;11.00;91.20;;;;;;5034339;28;20023;-65
2024/04/04 03:33:13;;;;;;;1.60;0.68;;;11.10;91.20;;;;;;5032115;28;20486;-67
2024/04/04 03:35:39;;;;;;;0.85;0.55;;;11.10;91.20;;;;;;5032776;28;20021;-65
2024/04/04 03:38:05;;;;;;;1.25;0.82;;;11.10;91.10;;;;;;5037070;28;20028;-66
2024/04/04 03:40:33;;;;;;;0.80;0.60;;;11.20;91.10;;;;;;5032621;28;20049;-66
2024/04/04 03:43:01;;;;;;;0.55;0.40;;;11.20;91.10;;;;;;5030192;28;20423;-67
2024/04/04 03:45:27;;;;;;;1.40;0.60;;;11.20;91.00;;;;;;5032179;28;20022;-67
2024/04/04 03:47:53;;;;;;;0.75;0.60;;;11.20;91.10;;;;;;5035062;28;20170;-67
2024/04/04 03:50:18;;;;;;;2.28;0.60;;;11.20;91.10;;;;;;5028515;28;20032;-66
2024/04/04 03:52:44;;;;;;;0.63;0.60;;;11.20;91.10;;;;;;5023272;28;20116;-66
2024/04/04 03:55:09;;;;;;;1.17;0.60;;;11.20;91.20;;;;;;5031136;28;20076;-67
2024/04/04 03:57:35;;;;;;;1.08;0.63;;;11.20;91.20;;;;;;5035306;28;20029;-67
2024/04/04 04:00:02;;;;;;;1.13;0.70;;;11.20;91.20;;;;;;5029242;28;20045;-67
2024/04/04 04:02:28;;;;;;;1.27;0.70;;;11.20;91.30;;;;;;5036425;28;21451;-66
2024/04/04 04:04:54;;;;;;;1.45;0.60;;;11.20;91.30;;;;;;5033419;28;20108;-65
2024/04/04 04:07:20;;;;;;;2.55;0.90;;;11.20;91.30;;;;;;5033859;28;20396;-67
2024/04/04 04:09:45;;;;;;;2.05;0.60;;;11.20;91.40;;;;;;5028220;28;20058;-66
2024/04/04 04:12:11;;;;;;;1.27;0.57;;;11.20;91.40;;;;;;5029296;28;20119;-67
2024/04/04 04:14:37;;;;;;;1.33;0.82;;;11.20;91.30;;;;;;5035445;28;20035;-66
2024/04/04 04:17:02;;;;;;;0.68;0.50;;;11.10;91.40;;;;;;5040637;28;20502;-67
2024/04/04 04:19:28;;;;;;;1.23;0.60;;;11.20;91.50;;;;;;5031813;28;20041;-66
2024/04/04 04:21:53;;;;;;;0.98;0.63;;;11.20;91.50;;;;;;5028552;28;20030;-67
2024/04/04 04:24:19;;;;;;;2.17;0.80;;;11.20;91.50;;;;;;5033371;28;20106;-67
2024/04/04 04:26:44;;;;;;;1.42;0.80;;;11.10;91.60;;;;;;5032369;28;20096;-67
2024/04/04 04:29:11;;;;;;;1.33;0.80;;;11.10;91.80;;;;;;5031852;28;20025;-67
2024/04/04 04:31:37;;;;;;;1.35;0.55;;;11.10;91.80;;;;;;5022244;28;20020;-67
2024/04/04 04:34:03;;;;;;;0.80;0.60;;;11.10;91.80;;;;;;5022247;28;20025;-67
2024/04/04 04:36:37;;;;;;;1.70;1.15;;;11.00;92.10;;;;;;5026090;28;20028;-66
2024/04/04 04:39:04;;;;;;;1.25;0.90;;;11.00;92.20;;;;;;5029581;28;20025;-67
2024/04/04 04:41:29;;;;;;;1.70;0.80;;;11.00;92.30;;;;;;5030724;28;20022;-67
2024/04/04 04:43:55;;;;;;;2.45;0.77;;;11.00;92.30;;;;;;5024077;28;20110;-66
2024/04/04 04:46:20;;;;;;;2.42;1.15;;;11.10;92.20;;;;;;5025464;28;20030;-67
2024/04/04 04:48:47;;;;;;;1.25;1.00;;;11.10;92.20;;;;;;5026797;28;20618;-67
2024/04/04 04:51:13;;;;;;;2.38;1.25;;;11.20;92.20;;;;;;5028967;28;20028;-67
2024/04/04 04:53:39;;;;;;;1.17;1.00;;;11.20;92.30;;;;;;5028080;28;20029;-66
2024/04/04 04:56:05;;;;;;;2.60;1.40;;;11.20;92.30;;;;;;5020167;28;20025;-67
2024/04/04 04:58:32;;;;;;;2.15;1.20;;;11.30;92.50;;;;;;5038668;28;20037;-66
2024/04/04 05:00:58;;;;;;;1.30;1.10;;;11.30;92.60;;;;;;5026743;28;20044;-67
2024/04/04 05:03:24;;;;;;;1.15;1.05;;;11.40;92.60;;;;;;5025349;28;20030;-67
2024/04/04 05:05:50;;;;;;;2.70;1.48;;;11.40;92.70;;;;;;5026196;28;20091;-67
2024/04/04 05:08:19;;;;;;;1.70;1.40;;;11.40;92.90;;;;;;5025490;28;20035;-67
2024/04/04 05:10:46;;;;;;;3.10;1.50;;;11.50;93.00;;;;;;5031080;28;20029;-67
2024/04/04 05:13:12;;;;;;;3.55;1.85;;;11.50;93.40;;;;;;5027875;28;20022;-66
2024/04/04 05:15:45;;;;;;;1.90;1.40;;;11.50;93.60;;;;;;5025887;28;20090;-66
2024/04/04 05:18:11;;;;;;;3.28;1.50;;;11.60;93.80;;;;;;5028612;28;20504;-66
2024/04/04 05:20:37;;;;;;;2.78;1.35;;;11.60;93.90;;;;;;5030961;28;20060;-66
2024/04/04 05:23:02;;;;;;;5.38;2.00;;;11.60;94.10;;;;;;5024095;28;20067;-66
2024/04/04 05:25:28;;;;;;;3.10;1.55;;;11.60;94.60;;;;;;5027380;28;20108;-66
2024/04/04 05:27:53;;;;;;;1.90;1.35;;;11.70;94.90;;;;;;5024265;28;20033;-66
2024/04/04 05:30:20;;;;;;;1.95;1.25;;;11.70;94.80;;;;;;5038298;28;20024;-66
2024/04/04 05:32:45;;;;;;;1.80;1.52;;;11.80;94.60;;;;;;5026000;28;20045;-67
2024/04/04 05:35:12;;;;;;;2.97;1.30;;;11.80;94.70;;;;;;5036652;28;20052;-66
2024/04/04 05:37:37;;;;;;;2.45;1.52;;;11.80;94.70;;;;;;5025389;28;20049;-67
2024/04/04 05:40:04;;;;;;;2.88;1.52;;;11.80;94.90;;;;;;5021332;28;20029;-66
2024/04/04 05:42:32;;;;;;;4.25;1.90;;;11.80;95.00;;;;;;5026047;28;20380;-66
2024/04/04 05:44:58;;;;;;;5.20;1.92;;;11.90;95.30;;;;;;5022005;28;20026;-65
2024/04/04 05:47:23;;;;;;;1.63;1.23;;;11.90;95.50;;;;;;5022613;28;20519;-66
2024/04/04 05:49:49;;;;;;;2.13;1.20;;;11.90;95.50;;;;;;5030819;28;20033;-66
2024/04/04 05:52:14;;;;;;;2.92;1.25;;;12.00;95.40;;;;;;5018761;28;20028;-67
2024/04/04 05:54:40;;;;;;;1.08;0.90;;;12.00;95.30;;;;;;5023697;28;20096;-65
2024/04/04 05:57:06;;;;;;;1.92;1.00;;;12.10;95.20;;;;;;5027352;28;20387;-66
2024/04/04 05:59:32;;;;;;;1.70;1.10;;;12.10;95.10;;;;;;5022382;28;20433;-64
2024/04/04 06:01:58;;;;;;;3.08;1.40;;;12.20;95.30;;;;;;5028252;28;20025;-66
2024/04/04 06:04:25;;;;;;;3.17;1.20;;;12.20;95.00;;;;;;5021140;28;20159;-66
2024/04/04 06:06:51;;;;;;;1.20;1.10;;;12.20;95.10;;;;;;5022627;28;20239;-66
2024/04/04 06:09:17;;;;;;;2.58;1.40;;;12.20;95.10;;;;;;5022491;28;20034;-67
2024/04/04 06:11:42;;;;;;;3.25;1.70;;;12.20;95.30;;;;;;5021914;28;20136;-67
2024/04/04 06:14:08;;;;;;;2.85;1.50;;;12.20;95.50;;;;;;5026924;28;20029;-67
2024/04/04 06:16:34;;;;;;;3.15;1.65;;;12.20;95.50;;;;;;5017035;28;20026;-66
2024/04/04 06:19:00;;;;;;;3.78;1.60;;;12.20;95.60;;;;;;5023112;28;20029;-66
2024/04/04 06:21:25;;;;;;;3.35;1.67;;;12.30;95.80;;;;;;5024385;28;20546;-67
2024/04/04 06:23:51;;;;;;;3.95;1.65;;;12.30;96.00;;;;;;5025398;28;20136;-67
2024/04/04 06:26:17;;;;;;;3.67;1.50;;;12.30;96.00;;;;;;5024345;28;20021;-66
2024/04/04 06:28:45;;;;;;;1.92;1.40;;;12.30;96.20;;;;;;5020526;28;20028;-64
2024/04/04 06:31:11;;;;;;;2.70;1.50;;;12.30;96.20;;;;;;5022411;28;20017;-66
2024/04/04 06:33:37;;;;;;;4.97;1.80;;;12.30;96.60;;;;;;5020222;28;20030;-66
2024/04/04 06:36:04;;;;;;;4.53;1.83;;;12.30;96.70;;;;;;5024532;28;20022;-66
2024/04/04 06:38:29;;;;;;;3.80;2.05;;;12.40;96.80;;;;;;5030976;28;20091;-66
2024/04/04 06:40:55;;;;;;;3.22;1.60;;;12.40;97.30;;;;;;5032681;28;20079;-64
2024/04/04 06:43:20;;;;;;;6.00;1.83;;;12.40;97.40;;;;;;5025608;28;20087;-67
2024/04/04 06:45:46;;;;;;;3.53;1.50;;;12.40;97.60;;;;;;5024391;28;20439;-67
2024/04/04 06:48:11;;;;;;;4.75;1.80;;;12.40;97.80;;;;;;5028551;28;20032;-65
2024/04/04 06:50:37;;;;;;;3.85;1.50;;;12.50;98.10;;;;;;5024622;28;20026;-66
2024/04/04 06:53:03;;;;;;;5.85;2.22;;;12.50;98.30;;;;;;5029776;28;20036;-66
2024/04/04 06:55:28;;;;;;;5.43;1.65;;;12.50;98.50;;;;;;5029425;28;20080;-66
2024/04/04 06:57:54;;;;;;;5.50;1.58;;;12.50;98.70;;;;;;5027919;28;20033;-67
2024/04/04 07:00:20;;;;;;;5.85;1.92;;;12.50;98.90;;;;;;5031198;28;20033;-66
2024/04/04 07:02:45;;;;;;;3.20;1.70;;;12.50;99.10;;;;;;5037463;28;20032;-66
2024/04/04 07:05:11;;;;;;;5.80;1.60;;;12.50;99.10;;;;;;5031721;28;20029;-66
2024/04/04 07:07:37;;;;;;;5.63;1.60;;;12.60;99.10;;;;;;5039843;28;20021;-65
2024/04/04 07:10:06;;;;;;;5.22;1.60;;;12.60;99.20;;;;;;5031753;28;20108;-66
2024/04/04 07:12:32;;;;;;;4.25;1.40;;;12.60;99.20;;;;;;5038541;28;20072;-64
2024/04/04 07:14:57;;;;;;;2.65;1.08;;;12.70;99.10;;;;;;5033385;28;20033;-66
2024/04/04 07:17:24;;;;;;;4.07;1.58;;;12.70;99.00;;;;;;5030962;28;20029;-66
2024/04/04 07:19:56;;;;;;;6.28;1.92;;;12.70;99.00;;;;;;5031134;28;20037;-65
2024/04/04 07:22:22;;;;;;;3.95;1.70;;;12.70;99.20;;;;;;5036007;28;20056;-65
2024/04/04 07:24:48;;;;;;;3.08;1.25;;;12.70;99.30;;;;;;5030906;28;20030;-66
2024/04/04 07:27:14;;;;;;;4.82;1.48;;;12.70;99.40;;;;;;5027536;28;20018;-65
2024/04/04 07:29:41;;;;;;;2.47;1.10;;;12.70;99.50;;;;;;5037721;28;20056;-65
2024/04/04 07:32:08;;;;;;;1.67;1.10;;;12.80;99.50;;;;;;5041148;28;20013;-66
2024/04/04 07:34:34;;;;;;;1.80;0.90;;;12.80;99.30;;;;;;5031689;28;20045;-66
2024/04/04 07:37:00;;;;;;;2.78;1.30;;;12.90;99.20;;;;;;5031842;28;20061;-67
2024/04/04 07:39:25;;;;;;;3.50;1.17;;;12.90;99.20;;;;;;5026939;28;20029;-65
2024/04/04 07:41:51;;;;;;;1.40;0.77;;;12.90;99.20;;;;;;5035043;28;20025;-66
2024/04/04 07:44:16;;;;;;;2.47;0.90;;;12.90;99.00;;;;;;5023786;28;20028;-66
2024/04/04 07:46:42;;;;;;;2.60;1.00;;;13.00;98.90;;;;;;5030523;28;20030;-66
2024/04/04 07:49:08;;;;;;;2.15;1.00;;;13.00;98.90;;;;;;5026649;28;20148;-65
2024/04/04 07:51:35;;;;;;;2.13;1.00;;;13.00;98.90;;;;;;5032461;28;20021;-66
2024/04/04 07:54:00;;;;;;;4.35;1.65;;;13.00;98.90;;;;;;5023913;28;20500;-65
2024/04/04 07:56:26;;;;;;;2.95;0.90;;;13.10;98.90;;;;;;5041316;28;20120;-66
2024/04/04 07:58:51;;;;;;;1.60;0.82;;;13.10;98.80;;;;;;5039590;28;20030;-66
2024/04/04 08:01:20;;;;;;;2.75;1.10;;;13.10;98.70;;;;;;5039622;28;20026;-66
2024/04/04 08:03:47;;;;;;;2.15;0.98;;;13.20;98.70;;;;;;5035831;28;20068;-66
2024/04/04 08:06:16;;;;;;;3.40;1.10;;;13.20;98.60;;;;;;5042258;28;20178;-65
2024/04/04 08:08:43;;;;;;;2.50;0.88;;;13.20;98.50;;;;;;5034664;28;20022;-65
2024/04/04 08:11:12;;;;;;;2.63;0.82;;;13.30;98.50;;;;;;5040925;28;20103;-65
2024/04/04 08:13:38;;;;;;;4.10;1.08;;;13.30;98.40;;;;;;5046524;28;20025;-65
2024/04/04 08:16:04;;;;;;;1.35;0.85;;;13.30;98.30;;;;;;5038336;28;20032;-66
2024/04/04 08:18:30;;;;;;;3.05;1.00;;;13.30;98.30;;;;;;5033704;28;20048;-65
2024/04/04 08:20:55;;;;;;;2.45;0.90;;;13.30;98.30;;;;;;5042393;28;20029;-65
2024/04/04 08:23:21;;;;;;;2.45;1.13;;;13.30;98.30;;;;;;5020350;28;20045;-65
2024/04/04 08:25:54;;;;;;;1.25;0.85;;;13.30;98.30;;;;;;5033276;28;20037;-65
2024/04/04 08:28:19;;;;;;;1.83;0.90;;;13.40;98.30;;;;;;5033692;28;20116;-65
2024/04/04 08:30:46;;;;;;;1.40;1.20;;;13.40;98.20;;;;;;5025412;28;20491;-64
2024/04/04 08:33:11;;;;;;;2.72;1.15;;;13.40;98.20;;;;;;5035989;28;20028;-66
2024/04/04 08:35:38;;;;;;;2.72;1.20;;;13.40;98.20;;;;;;5041018;28;20032;-64
2024/04/04 08:38:03;;;;;;;2.17;1.17;;;13.40;98.20;;;;;;5050599;28;20017;-65
2024/04/04 08:40:31;;;;;;;2.45;1.10;;;13.40;98.20;;;;;;5036116;28;20626;-64
2024/04/04 08:42:56;;;;;;;1.98;0.90;;;13.30;98.30;;;;;;5041804;28;20033;-64
2024/04/04 08:45:26;;;;;;;2.47;1.08;;;13.30;98.30;;;;;;5037604;28;20435;-65
2024/04/04 08:47:52;;;;;;;1.63;0.90;;;13.30;98.30;;;;;;5034498;28;20480;-64
2024/04/04 08:50:18;;;;;;;1.95;0.68;;;13.40;98.20;;;;;;5023584;28;20028;-64
2024/04/04 08:52:44;;;;;;;2.90;1.20;;;13.40;98.10;;;;;;5039572;28;20024;-64
2024/04/04 08:55:09;;;;;;;1.35;0.90;;;13.40;98.10;;;;;;5028129;28;20030;-64
2024/04/04 08:57:37;;;;;;;3.30;1.20;;;13.40;98.10;;;;;;5036728;28;20029;-64
2024/04/04 09:00:11;;;;;;;2.75;1.00;;;13.40;98.10;;;;;;5040364;28;20422;-67
2024/04/04 09:02:40;;;;;;;1.48;1.20;;;13.30;98.10;;;;;;5027447;28;20018;-64
2024/04/04 09:05:06;;;;;;;1.27;1.00;;;13.30;98.20;;;;;;5033104;28;20029;-64
2024/04/04 09:07:38;;;;;;;2.47;1.00;;;13.30;98.30;;;;;;5042418;28;20093;-64
2024/04/04 09:10:05;;;;;;;;;;;13.30;98.30;;;;;;5040117;28;20132;-64
2024/04/04 09:12:31;;;;;;;4.35;1.27;;;13.30;98.20;;;;;;5032363;28;19909;-64
2024/04/04 09:15:00;;;;;;;1.80;1.05;;;13.30;98.40;;;;;;5020741;28;20038;-65
2024/04/04 09:17:27;;;;;;;2.33;1.20;;;13.40;98.40;;;;;;5023756;28;20028;-64
2024/04/04 09:19:56;;;;;;;2.10;1.13;;;13.30;98.30;;;;;;5036214;28;20044;-64
2024/04/04 09:22:23;;;;;;;3.53;1.38;;;13.40;98.40;;;;;;5028222;28;20029;-63
2024/04/04 09:24:48;;;;;;;1.58;0.88;;;13.40;98.30;;;;;;5029837;28;20113;-65
2024/04/04 09:27:18;;;;;;;1.30;0.70;;;13.40;98.30;;;;;;5025807;28;20224;-64
2024/04/04 09:29:50;;;;;;;1.60;0.80;;;13.40;98.20;;;;;;5020495;28;20036;-64
2024/04/04 09:32:17;;;;;;;;;;;13.40;98.20;;;;;;5033707;28;20749;-65
2024/04/04 09:34:44;;;;;;;0.80;0.68;;;13.40;98.10;;;;;;5032928;28;20072;-65
2024/04/04 09:37:14;;;;;;;1.10;0.98;;;13.40;98.20;;;;;;5026150;28;20024;-64
2024/04/04 09:39:41;;;;;;;1.52;0.90;;;13.50;98.30;;;;;;5025194;28;20030;-65
2024/04/04 09:42:10;;;;;;;1.35;0.90;;;13.60;98.20;;;;;;5031581;28;20030;-64
2024/04/04 09:44:36;;;;;;;1.02;0.80;;;13.70;98.00;;;;;;5024591;28;20554;-63
2024/04/04 09:47:06;;;;;;;1.80;1.13;;;13.70;97.90;;;;;;5027064;28;21323;-64
2024/04/04 09:49:32;;;;;;;1.35;1.00;;;13.70;97.90;;;;;;5035794;28;20040;-65
2024/04/04 09:52:01;;;;;;;1.92;1.00;;;13.70;97.90;;;;;;5033475;28;20032;-65
2024/04/04 09:54:27;;;;;;;1.60;0.88;;;13.90;97.80;;;;;;5027302;28;20084;-64
2024/04/04 09:56:54;;;;;;;2.72;1.30;;;13.90;98.00;;;;;;5027022;28;20045;-65
2024/04/04 09:59:27;;;;;;;2.35;1.35;;;14.00;97.70;;;;;;5031043;28;20112;-64
2024/04/04 10:01:52;;;;;;;2.67;1.33;;;14.00;97.60;;;;;;5031725;28;20021;-65
2024/04/04 10:04:19;;;;;;;1.98;1.10;;;14.00;97.40;;;;;;5035300;28;20384;-65
2024/04/04 10:06:46;;;;;;;2.70;1.08;;;13.90;97.40;;;;;;5022535;28;20033;-65
2024/04/04 10:09:20;;;;;;;1.45;0.90;;;13.90;97.40;;;;;;5028958;28;20095;-64
2024/04/04 10:11:46;;;;;;;1.48;0.77;;;13.90;97.50;;;;;;5027349;28;20025;-64
2024/04/04 10:14:13;;;;;;;0.70;0.70;;;13.80;97.50;;;;;;5015143;28;20025;-65
2024/04/04 10:16:44;;;;;;;1.30;0.70;;;13.80;97.50;;;;;;5030458;28;20052;-64
2024/04/04 10:19:20;;;;;;;1.00;0.90;;;13.80;97.60;;;;;;5017597;28;20404;-63
2024/04/04 10:21:46;;;;;;;1.00;0.90;;;13.70;97.60;;;;;;5037600;28;20538;-65
2024/04/04 10:24:28;;;;;;;1.40;0.80;;;13.60;97.60;;;;;;5026553;28;20438;-65
2024/04/04 10:26:55;;;;;;;2.40;0.88;;;13.50;97.80;;;;;;5035282;28;20067;-65
2024/04/04 10:29:31;;;;;;;1.73;1.00;;;13.60;97.80;;;;;;5020638;28;20010;-65
2024/04/04 10:31:57;;;;;;;2.30;1.10;;;13.70;97.80;;;;;;5033236;28;20025;-65
2024/04/04 10:34:22;;;;;;;3.78;1.35;;;13.70;97.60;;;;;;5028973;28;20048;-65
2024/04/04 10:36:48;;;;;;;2.22;1.10;;;13.80;97.40;;;;;;5036021;28;20756;-63
2024/04/04 10:39:17;;;;;;;2.45;0.90;;;13.90;97.20;;;;;;5030215;28;20365;-64
2024/04/04 10:41:44;;;;;;;2.08;1.00;;;14.10;97.00;;;;;;5032525;28;20025;-65
2024/04/04 10:44:15;;;;;;;1.00;0.77;;;14.10;96.70;;;;;;5020836;28;20026;-65
2024/04/04 10:46:51;;;;;;;1.43;1.00;;;14.30;96.60;;;;;;5040618;28;20021;-64
2024/04/04 10:49:19;;;;;;;1.55;0.90;;;14.30;96.20;;;;;;5023014;28;20022;-65
2024/04/04 10:51:54;;;;;;;2.25;1.20;;;14.40;96.20;;;;;;5037928;28;20538;-65
2024/04/04 10:54:20;;;;;;;1.70;0.90;;;14.40;96.00;;;;;;5032405;28;20024;-65
2024/04/04 10:56:47;;;;;;;1.55;0.82;;;14.60;95.90;;;;;;5026578;28;20040;-65
2024/04/04 10:59:15;;;;;;;2.00;1.25;;;14.70;96.00;;;;;;5030417;28;20396;-65
2024/04/04 11:01:43;;;;;;;0.98;0.90;;;14.80;95.40;;;;;;5032337;28;20061;-64
2024/04/04 11:04:11;;;;;;;3.38;1.13;;;14.90;95.20;;;;;;5024453;28;20025;-65
2024/04/04 11:06:39;;;;;;;3.38;1.40;;;15.00;94.90;;;;;;5029833;28;20021;-66
2024/04/04 11:09:15;;;;;;;2.65;1.20;;;15.10;94.70;;;;;;5032546;28;20439;-65
2024/04/04 11:11:45;;;;;;;2.90;1.52;;;15.30;94.00;;;;;;5036690;28;20044;-65
2024/04/04 11:14:11;;;;;;;2.17;0.85;;;15.30;93.80;;;;;;5032096;28;20100;-65
2024/04/04 11:16:41;;;;;;;3.05;0.93;;;15.40;93.70;;;;;;5032440;28;20163;-65
2024/04/04 11:19:08;;;;;;;1.70;0.80;;;15.40;93.20;;;;;;5031007;28;20095;-66
2024/04/04 11:21:35;;;;;;;1.83;0.77;;;15.30;92.60;;;;;;5028469;28;20104;-66
2024/04/04 11:24:01;;;;;;;0.90;0.63;;;15.30;92.40;;;;;;5034342;28;20116;-66
2024/04/04 11:26:26;;;;;;;2.10;0.60;;;15.20;92.40;;;;;;5030323;28;20104;-65
2024/04/04 11:28:52;;;;;;;1.50;0.60;;;15.20;92.50;;;;;;5031472;28;20560;-65
2024/04/04 11:31:17;;;;;;;0.85;0.60;;;15.20;92.00;;;;;;5023116;28;20111;-65
2024/04/04 11:33:43;;;;;;;3.03;0.90;;;15.20;92.20;;;;;;5035265;28;20025;-65
2024/04/04 11:36:09;;;;;;;0.60;0.60;;;15.20;91.80;;;;;;5032728;28;20111;-65
2024/04/04 11:38:34;;;;;;;2.83;0.82;;;15.40;91.50;;;;;;5030937;28;20033;-65
2024/04/04 11:41:00;;;;;;;2.42;0.90;;;15.40;90.70;;;;;;5022178;28;20033;-65
2024/04/04 11:43:26;;;;;;;4.47;1.13;;;15.50;90.30;;;;;;5024169;28;20025;-65
2024/04/04 11:45:52;;;;;;;3.30;0.93;;;15.50;89.70;;;;;;5028869;28;20037;-65
2024/04/04 11:48:18;;;;;;;2.90;1.00;;;15.50;89.60;;;;;;5027292;28;20052;-65
2024/04/04 11:50:47;;;;;;;2.78;0.90;;;15.60;89.80;;;;;;5022531;28;20033;-65
2024/04/04 11:53:13;;;;;;;3.90;1.00;;;15.70;88.70;;;;;;5020789;28;20033;-64
2024/04/04 11:55:40;;;;;;;2.97;0.90;;;15.70;87.60;;;;;;5031784;28;20030;-65
2024/04/04 11:58:05;;;;;;;3.10;1.00;;;15.70;87.30;;;;;;5029470;28;20030;-64
2024/04/04 12:00:31;;;;;;;6.63;1.38;;;15.80;86.70;;;;;;5031986;28;20030;-65
2024/04/04 12:02:57;;;;;;;3.30;0.90;;;15.80;86.90;;;;;;5030800;28;20041;-65
2024/04/04 12:05:25;;;;;;;2.13;0.88;;;15.80;86.50;;;;;;5027531;28;20021;-64
2024/04/04 12:07:51;;;;;;;3.90;1.02;;;15.80;85.10;;;;;;5024549;28;20017;-63
2024/04/04 12:10:17;;;;;;;3.63;1.05;;;15.80;84.80;;;;;;5025631;28;20071;-64
2024/04/04 12:12:43;;;;;;;3.97;1.00;;;15.80;84.00;;;;;;5032064;28;20079;-63
2024/04/04 12:15:08;;;;;;;2.47;0.95;;;15.90;84.70;;;;;;5035292;28;20484;-66
2024/04/04 12:17:36;;;;;;;2.83;0.80;;;16.20;84.40;;;;;;5032444;28;20051;-67
2024/04/04 12:20:03;;;;;;;2.72;0.90;;;16.30;83.50;;;;;;5031297;28;20094;-65
2024/04/04 12:22:29;;;;;;;3.47;0.90;;;16.30;82.10;;;;;;5037363;28;20033;-64
2024/04/04 12:24:54;;;;;;;4.53;1.00;;;16.30;82.80;;;;;;5030375;28;20040;-66
2024/04/04 12:27:20;;;;;;;4.25;0.90;;;16.30;82.60;;;;;;5028676;28;20029;-65
2024/04/04 12:29:45;;;;;;;2.70;1.10;;;16.50;83.00;;;;;;5024742;28;20129;-66
2024/04/04 12:32:11;;;;;;;3.22;1.10;;;16.60;81.60;;;;;;5032176;28;20025;-65
2024/04/04 12:34:36;;;;;;;5.03;1.48;;;16.60;80.30;;;;;;5029046;28;20043;-65
2024/04/04 12:37:02;;;;;;;3.90;1.27;;;16.60;79.90;;;;;;5031601;28;20036;-65
2024/04/04 12:39:27;;;;;;;4.25;1.10;;;16.50;79.40;;;;;;5031673;28;20029;-65
2024/04/04 12:41:53;;;;;;;4.40;1.10;;;16.50;79.30;;;;;;5026552;28;20443;-65
2024/04/04 12:44:19;;;;;;;5.50;1.23;;;16.40;79.30;;;;;;5029851;28;20530;-66